createdAt,value
2023-02-11T00:01:26.918Z,102443.66
2023-02-11T00:03:56.167Z,102448.34
2023-02-11T00:06:27.916Z,102443.09
2023-02-11T00:08:57.215Z,102455.94
2023-02-11T00:11:30.194Z,102476.91
2023-02-11T00:13:59.295Z,102486.41
2023-02-11T00:16:27.828Z,102483.66
2023-02-11T00:18:56.167Z,102493.50
2023-02-11T00:21:28.372Z,102478.25
2023-02-11T00:23:59.567Z,102462.28
2023-02-11T00:26:31.130Z,102454.28
2023-02-11T00:28:59.303Z,102456.72
2023-02-11T00:31:27.995Z,102429.25
2023-02-11T00:33:56.477Z,102446.16
2023-02-11T00:36:28.995Z,102431.13
2023-02-11T00:38:58.975Z,102416.03
2023-02-11T00:41:27.383Z,102430.78
2023-02-11T00:43:55.388Z,102448.59
2023-02-11T00:46:24.409Z,102453.84
2023-02-11T00:48:55.043Z,102450.84
2023-02-11T00:51:23.161Z,102449.59
2023-02-11T00:53:53.441Z,102451.09
2023-02-11T00:56:21.624Z,102454.75
2023-02-11T00:58:49.684Z,102440.66
2023-02-11T01:01:17.826Z,102431.56
2023-02-11T01:03:45.835Z,102418.09
2023-02-11T01:06:14.632Z,102407.91
2023-02-11T01:08:42.616Z,102403.59
2023-02-11T01:11:17.967Z,102398.81
2023-02-11T01:13:47.066Z,102374.75
2023-02-11T01:16:16.085Z,102368.56
2023-02-11T01:18:44.708Z,102368.06
2023-02-11T01:21:13.344Z,102371.94
2023-02-11T01:23:41.284Z,102381.56
2023-02-11T01:26:09.161Z,102388.53
2023-02-11T01:28:38.468Z,102371.69
2023-02-11T01:31:06.568Z,102371.69
2023-02-11T01:33:34.899Z,102375.25
2023-02-11T01:36:06.040Z,102370.50
2023-02-11T01:38:35.400Z,102362.59
2023-02-11T01:41:06.365Z,102368.34
2023-02-11T01:43:39.417Z,102344.53
2023-02-11T01:46:29.371Z,102322.19
2023-02-11T01:49:03.818Z,102326.03
2023-02-11T01:51:39.144Z,102340.91
2023-02-11T01:54:27.314Z,102346.06
2023-02-11T01:57:18.092Z,102336.59
2023-02-11T01:59:57.913Z,102327.50
2023-02-11T02:02:35.472Z,102310.50
2023-02-11T02:05:15.500Z,102318.41
2023-02-11T02:07:57.305Z,102327.25
2023-02-11T02:10:29.685Z,102331.13
2023-02-11T02:12:58.246Z,102335.25
2023-02-11T02:15:33.048Z,102335.19
2023-02-11T02:18:22.837Z,102331.66
2023-02-11T02:21:52.850Z,102339.47
2023-02-11T02:24:56.506Z,102332.84
2023-02-11T02:27:49.779Z,102328.47
2023-02-11T02:30:55.766Z,102318.94
2023-02-11T02:33:43.293Z,102312.72
2023-02-11T02:36:22.436Z,102311.88
2023-02-11T02:38:58.320Z,102300.88
2023-02-11T02:41:31.853Z,102303.81
2023-02-11T02:44:00.373Z,102296.81
2023-02-11T02:46:31.496Z,102299.59
2023-02-11T02:49:01.960Z,102303.81
2023-02-11T02:52:02.402Z,102305.69
2023-02-11T02:55:11.658Z,102307.41
2023-02-11T02:57:58.481Z,102304.03
2023-02-11T03:00:36.677Z,102288.06
2023-02-11T03:03:24.584Z,102295.72
2023-02-11T03:06:04.488Z,102284.38
2023-02-11T03:08:38.905Z,102284.88
2023-02-11T03:11:08.939Z,102276.47
2023-02-11T03:13:40.557Z,102279.28
2023-02-11T03:16:14.881Z,102276.47
2023-02-11T03:18:50.493Z,102272.25
2023-02-11T03:21:21.819Z,102287.38
2023-02-11T03:23:55.664Z,102279.91
2023-02-11T03:26:31.608Z,102273.94
2023-02-11T03:29:09.730Z,102277.91
2023-02-11T03:31:49.393Z,102267.59
2023-02-11T03:34:28.873Z,102267.59
2023-02-11T03:37:06.715Z,102275.50
2023-02-11T03:39:41.547Z,102269.91
2023-02-11T03:42:14.317Z,102267.44
2023-02-11T03:44:50.324Z,102256.75
2023-02-11T03:47:23.990Z,102269.06
2023-02-11T03:49:56.490Z,102268.03
2023-02-11T03:52:28.098Z,102265.25
2023-02-11T03:55:01.299Z,102270.44
2023-02-11T03:57:29.434Z,102273.84
2023-02-11T04:00:00.349Z,102277.56
2023-02-11T04:02:34.036Z,102282.13
2023-02-11T04:05:02.319Z,102278.34
2023-02-11T04:07:31.904Z,102272.06
2023-02-11T04:09:59.836Z,102279.97
2023-02-11T04:12:28.038Z,102282.91
2023-02-11T04:14:56.062Z,102275.78
2023-02-11T04:17:24.095Z,102281.09
2023-02-11T04:19:52.103Z,102288.06
2023-02-11T04:22:20.096Z,102286.34
2023-02-11T04:24:49.435Z,102273.81
2023-02-11T04:27:17.463Z,102275.31
2023-02-11T04:29:45.476Z,102275.31
2023-02-11T04:32:13.720Z,102272.66
2023-02-11T04:34:41.835Z,102276.28
2023-02-11T04:37:10.167Z,102271.03
2023-02-11T04:39:38.135Z,102266.44
2023-02-11T04:42:07.995Z,102262.94
2023-02-11T04:44:36.004Z,102257.63
2023-02-11T04:47:03.893Z,102254.28
2023-02-11T04:49:31.816Z,102259.59
2023-02-11T04:51:59.737Z,102247.78
2023-02-11T04:54:27.664Z,102239.66
2023-02-11T04:56:55.608Z,102235.44
2023-02-11T04:59:25.014Z,102228.53
2023-02-11T05:01:52.980Z,102223.06
2023-02-11T05:04:21.021Z,102223.22
2023-02-11T05:06:48.977Z,102229.78
2023-02-11T05:09:17.752Z,102227.22
2023-02-11T05:11:45.703Z,102218.25
2023-02-11T05:14:13.624Z,102220.13
2023-02-11T05:16:42.973Z,102211.13
2023-02-11T05:19:11.028Z,102205.53
2023-02-11T05:21:40.118Z,102203.44
2023-02-11T05:24:10.351Z,102194.41
2023-02-11T05:26:38.285Z,102188.81
2023-02-11T05:29:06.253Z,102190.94
2023-02-11T05:31:34.158Z,102190.41
2023-02-11T05:34:04.538Z,102189.50
2023-02-11T05:36:33.537Z,102190.41
2023-02-11T05:39:01.618Z,102188.53
2023-02-11T05:41:29.685Z,102182.34
2023-02-11T05:43:57.595Z,102184.50
2023-02-11T05:46:25.556Z,102182.03
2023-02-11T05:48:53.511Z,102170.25
2023-02-11T05:51:22.912Z,102173.59
2023-02-11T05:53:50.809Z,102175.56
2023-02-11T05:56:18.722Z,102180.63
2023-02-11T05:58:46.685Z,102178.72
2023-02-11T06:01:14.638Z,102174.53
2023-02-11T06:03:42.651Z,102190.25
2023-02-11T06:06:12.979Z,102196.38
2023-02-11T06:08:43.007Z,102193.03
2023-02-11T06:11:10.996Z,102193.22
2023-02-11T06:13:38.869Z,102188.09
2023-02-11T06:16:07.288Z,102189.63
2023-02-11T06:18:35.234Z,102182.84
2023-02-11T06:21:03.315Z,102186.59
2023-02-11T06:23:31.196Z,102183.81
2023-02-11T06:26:04.595Z,102177.63
2023-02-11T06:28:33.527Z,102170.59
2023-02-11T06:31:07.632Z,102170.41
2023-02-11T06:33:36.280Z,102156.97
2023-02-11T06:36:06.238Z,102152.69
2023-02-11T06:38:34.284Z,102161.28
2023-02-11T06:41:03.705Z,102157.44
2023-02-11T06:43:31.654Z,102152.97
2023-02-11T06:45:59.589Z,102150.97
2023-02-11T06:48:27.632Z,102156.13
2023-02-11T06:50:55.609Z,102172.81
2023-02-11T06:53:23.725Z,102168.53
2023-02-11T06:55:51.921Z,102178.34
2023-02-11T06:58:21.712Z,102179.97
2023-02-11T07:00:49.604Z,102182.63
2023-02-11T07:03:17.664Z,102181.91
2023-02-11T07:05:45.873Z,102180.06
2023-02-11T07:08:13.921Z,102170.44
2023-02-11T07:10:42.081Z,102166.47
2023-02-11T07:13:10.032Z,102169.28
2023-02-11T07:15:39.456Z,102173.41
2023-02-11T07:18:07.467Z,102165.97
2023-02-11T07:20:35.374Z,102150.31
2023-02-11T07:23:03.316Z,102161.50
2023-02-11T07:25:31.416Z,102151.38
2023-02-11T07:27:59.497Z,102146.78
2023-02-11T07:30:27.432Z,102147.19
2023-02-11T07:32:57.854Z,102140.97
2023-02-11T07:35:25.837Z,102141.16
2023-02-11T07:37:53.751Z,102143.72
2023-02-11T07:40:22.080Z,102152.22
2023-02-11T07:42:50.060Z,102152.47
2023-02-11T07:45:18.409Z,102153.06
2023-02-11T07:47:46.387Z,102149.22
2023-02-11T07:50:17.852Z,102153.44
2023-02-11T07:52:45.915Z,102141.66
2023-02-11T07:55:14.033Z,102160.38
2023-02-11T07:57:42.179Z,102153.97
2023-02-11T08:00:12.256Z,102148.75
2023-02-11T08:02:40.223Z,102148.06
2023-02-11T08:05:08.740Z,102156.06
2023-02-11T08:07:38.146Z,102154.34
2023-02-11T08:10:07.125Z,102162.03
2023-02-11T08:12:38.150Z,102165.94
2023-02-11T08:15:06.646Z,102178.66
2023-02-11T08:17:36.306Z,102185.16
2023-02-11T08:20:04.337Z,102188.97
2023-02-11T08:22:33.413Z,102191.94
2023-02-11T08:25:03.092Z,102182.22
2023-02-11T08:27:31.161Z,102180.00
2023-02-11T08:30:00.405Z,102189.53
2023-02-11T08:32:28.709Z,102180.59
2023-02-11T08:34:58.899Z,102192.25
2023-02-11T08:37:27.425Z,102207.00
2023-02-11T08:39:55.458Z,102206.44
2023-02-11T08:42:24.972Z,102214.44
2023-02-11T08:44:52.889Z,102209.84
2023-02-11T08:47:20.855Z,102209.28
2023-02-11T08:49:48.883Z,102191.91
2023-02-11T08:52:16.870Z,102189.69
2023-02-11T08:54:44.817Z,102189.03
2023-02-11T08:57:13.122Z,102178.59
2023-02-11T08:59:42.550Z,102174.72
2023-02-11T09:02:13.729Z,102168.00
2023-02-11T09:04:42.157Z,102181.38
2023-02-11T09:07:10.122Z,102178.59
2023-02-11T09:09:38.116Z,102172.03
2023-02-11T09:12:06.905Z,102194.19
2023-02-11T09:14:35.161Z,102198.72
2023-02-11T09:17:04.590Z,102202.84
2023-02-11T09:19:32.744Z,102193.94
2023-02-11T09:22:00.699Z,102195.00
2023-02-11T09:24:28.711Z,102205.69
2023-02-11T09:26:56.645Z,102217.03
2023-02-11T09:29:24.804Z,102200.63
2023-02-11T09:31:52.920Z,102200.84
2023-02-11T09:34:22.322Z,102193.59
2023-02-11T09:36:50.312Z,102201.72
2023-02-11T09:39:20.748Z,102213.41
2023-02-11T09:42:21.267Z,102213.50
2023-02-11T09:44:50.376Z,102219.78
2023-02-11T09:47:29.249Z,102230.91
2023-02-11T09:50:07.037Z,102230.25
2023-02-11T09:52:46.699Z,102239.38
2023-02-11T09:55:22.199Z,102229.94
2023-02-11T09:57:50.632Z,102240.44
2023-02-11T10:00:24.397Z,102253.25
2023-02-11T10:03:21.060Z,102244.97
2023-02-11T10:06:17.040Z,102244.84
2023-02-11T10:09:02.683Z,102235.38
2023-02-11T10:11:47.257Z,102239.31
2023-02-11T10:14:48.149Z,102234.25
2023-02-11T10:17:32.033Z,102233.69
2023-02-11T10:20:21.951Z,102228.88
2023-02-11T10:22:55.844Z,102222.19
2023-02-11T10:25:30.699Z,102232.13
2023-02-11T10:28:03.626Z,102245.06
2023-02-11T10:30:38.338Z,102242.22
2023-02-11T10:33:21.345Z,102248.81
2023-02-11T10:35:49.817Z,102248.97
2023-02-11T10:38:19.247Z,102245.56
2023-02-11T10:40:47.267Z,102246.41
2023-02-11T10:43:18.156Z,102236.91
2023-02-11T10:45:50.200Z,102237.31
2023-02-11T10:48:42.241Z,102240.56
2023-02-11T10:51:19.751Z,102238.91
2023-02-11T10:53:51.821Z,102235.22
2023-02-11T10:56:27.792Z,102230.31
2023-02-11T10:59:01.556Z,102219.91
2023-02-11T11:01:42.825Z,102206.66
2023-02-11T11:04:36.562Z,102204.81
2023-02-11T11:07:21.853Z,102217.63
2023-02-11T11:09:56.648Z,102216.03
2023-02-11T11:12:36.445Z,102220.72
2023-02-11T11:15:21.403Z,102221.72
2023-02-11T11:17:50.548Z,102232.22
2023-02-11T11:20:27.777Z,102230.63
2023-02-11T11:23:16.976Z,102224.78
2023-02-11T11:26:02.792Z,102213.13
2023-02-11T11:28:38.827Z,102212.06
2023-02-11T11:31:15.074Z,102207.03
2023-02-11T11:33:45.537Z,102212.91
2023-02-11T11:36:18.134Z,102221.16
2023-02-11T11:38:53.438Z,102221.50
2023-02-11T11:41:27.405Z,102219.47
2023-02-11T11:44:23.805Z,102218.28
2023-02-11T11:47:14.922Z,102220.56
2023-02-11T11:49:52.860Z,102211.56
2023-02-11T11:52:39.062Z,102195.53
2023-02-11T11:55:19.015Z,102191.34
2023-02-11T11:57:49.735Z,102197.47
2023-02-11T12:00:22.152Z,102199.09
2023-02-11T12:03:30.529Z,102209.47
2023-02-11T12:06:21.360Z,102208.94
2023-02-11T12:09:07.947Z,102187.97
2023-02-11T12:11:59.880Z,102199.50
2023-02-11T12:14:42.268Z,102204.34
2023-02-11T12:17:28.795Z,102211.22
2023-02-11T12:20:23.672Z,102204.75
2023-02-11T12:23:15.465Z,102210.00
2023-02-11T12:25:52.420Z,102205.63
2023-02-11T12:28:37.959Z,102210.00
2023-02-11T12:31:28.611Z,102202.94
2023-02-11T12:34:23.317Z,102215.06
2023-02-11T12:37:08.822Z,102219.09
2023-02-11T12:39:46.137Z,102212.38
2023-02-11T12:43:08.581Z,102212.38
2023-02-11T12:45:54.958Z,102198.22
2023-02-11T12:48:47.160Z,102213.66
2023-02-11T12:51:38.819Z,102209.91
2023-02-11T12:54:30.982Z,102216.44
2023-02-11T12:57:07.389Z,102214.09
2023-02-11T12:59:50.616Z,102215.91
2023-02-11T13:02:34.220Z,102220.28
2023-02-11T13:05:14.497Z,102234.13
2023-02-11T13:07:48.714Z,102243.56
2023-02-11T13:10:31.569Z,102241.72
2023-02-11T13:13:18.507Z,102228.00
2023-02-11T13:15:52.622Z,102225.56
2023-02-11T13:18:51.739Z,102235.53
2023-02-11T13:22:04.805Z,102224.69
2023-02-11T13:24:44.851Z,102225.56
2023-02-11T13:27:31.493Z,102245.91
2023-02-11T13:30:29.500Z,102239.50
2023-02-11T13:33:20.609Z,102235.38
2023-02-11T13:36:15.659Z,102236.69
2023-02-11T13:38:56.100Z,102251.91
2023-02-11T13:41:35.017Z,102246.31
2023-02-11T13:44:28.294Z,102254.59
2023-02-11T13:47:02.446Z,102261.63
2023-02-11T13:49:38.242Z,102264.00
2023-02-11T13:52:19.934Z,102254.69
2023-02-11T13:54:54.186Z,102260.16
2023-02-11T13:57:43.596Z,102265.63
2023-02-11T14:00:49.821Z,102263.38
2023-02-11T14:03:47.214Z,102250.38
2023-02-11T14:06:40.175Z,102259.81
2023-02-11T14:09:37.147Z,102257.72
2023-02-11T14:12:35.769Z,102253.94
2023-02-11T14:15:39.076Z,102255.09
2023-02-11T14:18:59.808Z,102272.03
2023-02-11T14:21:38.823Z,102272.69
2023-02-11T14:24:49.865Z,102265.28
2023-02-11T14:27:29.191Z,102267.13
2023-02-11T14:30:27.527Z,102268.59
2023-02-11T14:33:35.933Z,102280.19
2023-02-11T14:36:28.629Z,102277.63
2023-02-11T14:39:12.597Z,102282.88
2023-02-11T14:41:47.192Z,102275.81
2023-02-11T14:44:20.389Z,102279.31
2023-02-11T14:46:53.649Z,102275.88
2023-02-11T14:49:29.535Z,102273.66
2023-02-11T14:52:07.391Z,102283.19
2023-02-11T14:54:36.894Z,102284.25
2023-02-11T14:57:12.650Z,102281.34
2023-02-11T14:59:58.902Z,102295.06
2023-02-11T15:02:34.245Z,102296.38
2023-02-11T15:05:26.325Z,102311.28
2023-02-11T15:07:57.004Z,102319.59
2023-02-11T15:10:33.905Z,102312.84
2023-02-11T15:13:04.264Z,102315.34
2023-02-11T15:15:37.342Z,102309.88
2023-02-11T15:18:09.555Z,102319.38
2023-02-11T15:20:37.747Z,102320.47
2023-02-11T15:23:10.362Z,102327.75
2023-02-11T15:25:46.281Z,102331.59
2023-02-11T15:38:38.419Z,102329.44
2023-02-11T15:41:09.707Z,102338.69
2023-02-11T15:43:47.293Z,102343.81
2023-02-11T15:46:20.352Z,102358.19
2023-02-11T15:48:53.174Z,102351.84
2023-02-11T15:51:25.464Z,102352.84
2023-02-11T15:53:58.520Z,102348.75
2023-02-11T15:56:33.166Z,102354.53
2023-02-11T15:59:13.795Z,102362.56
2023-02-11T16:01:42.353Z,102361.72
2023-02-11T16:04:32.884Z,102367.94
2023-02-11T16:07:00.963Z,102368.56
2023-02-11T16:09:37.168Z,102366.13
2023-02-11T16:12:27.044Z,102366.34
2023-02-11T16:14:56.497Z,102367.72
2023-02-11T16:17:28.971Z,102372.31
2023-02-11T16:19:57.429Z,102378.25
2023-02-11T16:22:28.854Z,102357.75
2023-02-11T16:25:00.792Z,102366.94
2023-02-11T16:27:40.729Z,102369.34
2023-02-11T16:30:27.981Z,102378.44
2023-02-11T16:32:58.790Z,102384.09
2023-02-11T16:35:26.747Z,102388.19
2023-02-11T16:37:55.449Z,102384.31
2023-02-11T16:40:23.524Z,102387.66
2023-02-11T16:42:53.491Z,102384.75
2023-02-11T16:45:21.608Z,102389.28
2023-02-11T16:47:50.813Z,102378.97
2023-02-11T16:50:24.912Z,102378.97
2023-02-11T16:52:53.445Z,102391.53
2023-02-11T16:55:22.278Z,102392.06
2023-02-11T16:57:52.115Z,102399.25
2023-02-11T17:00:20.719Z,102412.22
2023-02-11T17:02:48.806Z,102406.94
2023-02-11T17:05:20.240Z,102411.66
2023-02-11T17:07:48.279Z,102427.75
2023-02-11T17:10:19.396Z,102428.59
2023-02-11T17:12:48.118Z,102427.66
2023-02-11T17:15:18.024Z,102432.16
2023-02-11T17:17:46.323Z,102442.97
2023-02-11T17:20:16.545Z,102453.69
2023-02-11T17:22:44.510Z,102442.22
2023-02-11T17:25:13.185Z,102444.69
2023-02-11T17:27:41.683Z,102443.91
2023-02-11T17:30:11.850Z,102447.16
2023-02-11T17:32:41.257Z,102456.81
2023-02-11T17:35:09.716Z,102465.72
2023-02-11T17:38:31.818Z,102468.56
2023-02-11T17:41:07.797Z,102471.91
2023-02-11T17:44:12.213Z,102461.63
2023-02-11T17:46:40.490Z,102467.53
2023-02-11T17:49:11.217Z,102468.56
2023-02-11T17:51:40.944Z,102472.69
2023-02-11T17:54:13.743Z,102473.97
2023-02-11T17:56:42.743Z,102475.25
2023-02-11T17:59:13.559Z,102493.34
2023-02-11T18:01:43.874Z,102491.31
2023-02-11T18:04:26.039Z,102491.88
2023-02-11T18:06:54.715Z,102502.47
2023-02-11T18:09:22.874Z,102503.78
2023-02-11T18:11:52.506Z,102511.50
2023-02-11T18:14:21.077Z,102500.00
2023-02-11T18:16:52.245Z,102498.53
2023-02-11T18:19:22.359Z,102506.56
2023-02-11T18:21:50.982Z,102503.13
2023-02-11T18:24:19.628Z,102509.25
2023-02-11T18:26:47.608Z,102512.75
2023-02-11T18:29:15.573Z,102522.53
2023-02-11T18:31:49.895Z,102527.34
2023-02-11T18:34:17.960Z,102534.41
2023-02-11T18:36:47.877Z,102544.09
2023-02-11T18:39:15.938Z,102549.50
2023-02-11T18:41:43.906Z,102551.16
2023-02-11T18:44:14.228Z,102558.22
2023-02-11T18:46:42.425Z,102552.84
2023-02-11T18:49:13.125Z,102563.69
2023-02-11T18:51:41.211Z,102568.09
2023-02-11T18:54:10.543Z,102562.72
2023-02-11T18:56:38.405Z,102561.19
2023-02-11T18:59:06.412Z,102557.56
2023-02-11T19:01:35.587Z,102572.78
2023-02-11T19:04:06.212Z,102579.84
2023-02-11T19:06:37.315Z,102570.00
2023-02-11T19:09:09.742Z,102577.94
2023-02-11T19:11:50.935Z,102578.31
2023-02-11T19:14:24.024Z,102585.22
2023-02-11T19:16:54.994Z,102595.94
2023-02-11T19:19:25.198Z,102596.03
2023-02-11T19:21:53.428Z,102594.22
2023-02-11T19:24:22.432Z,102605.72
2023-02-11T19:26:53.850Z,102608.19
2023-02-11T19:29:22.006Z,102610.09
2023-02-11T19:31:50.243Z,102613.75
2023-02-11T19:34:20.839Z,102604.19
2023-02-11T19:36:49.926Z,102604.84
2023-02-11T19:39:18.456Z,102603.97
2023-02-11T19:41:46.531Z,102607.91
2023-02-11T19:44:16.606Z,102623.97
2023-02-11T19:46:45.974Z,102622.28
2023-02-11T19:49:22.794Z,102616.81
2023-02-11T19:51:51.313Z,102618.50
2023-02-11T19:54:20.180Z,102618.50
2023-02-11T19:56:48.965Z,102616.03
2023-02-11T19:59:18.293Z,102623.31
2023-02-11T20:01:47.645Z,102620.94
2023-02-11T20:04:16.678Z,102608.91
2023-02-11T20:06:48.074Z,102619.13
2023-02-11T20:09:16.827Z,102622.75
2023-02-11T20:11:45.119Z,102629.84
2023-02-11T20:14:15.620Z,102633.19
2023-02-11T20:16:49.603Z,102641.22
2023-02-11T20:19:21.875Z,102645.81
2023-02-11T20:21:53.159Z,102641.50
2023-02-11T20:24:22.174Z,102652.22
2023-02-11T20:26:55.185Z,102655.97
2023-02-11T20:29:24.850Z,102653.28
2023-02-11T20:31:54.907Z,102651.09
2023-02-11T20:34:23.006Z,102655.50
2023-02-11T20:36:52.785Z,102664.47
2023-02-11T20:39:22.826Z,102665.44
2023-02-11T20:41:52.332Z,102663.13
2023-02-11T20:44:21.777Z,102677.03
2023-02-11T20:46:50.231Z,102675.19
2023-02-11T20:49:22.603Z,102672.72
2023-02-11T20:51:51.176Z,102676.84
2023-02-11T20:54:21.381Z,102680.44
2023-02-11T20:56:51.774Z,102683.44
2023-02-11T20:59:20.951Z,102678.28
2023-02-11T21:01:53.310Z,102683.63
2023-02-11T21:04:26.547Z,102680.06
2023-02-11T21:06:57.928Z,102692.50
2023-02-11T21:09:29.012Z,102699.69
2023-02-11T21:11:57.676Z,102703.31
2023-02-11T21:14:27.643Z,102702.94
2023-02-11T21:16:56.497Z,102702.28
2023-02-11T21:19:26.353Z,102702.94
2023-02-11T21:21:57.178Z,102709.25
2023-02-11T21:24:25.094Z,102718.66
2023-02-11T21:26:53.039Z,102726.84
2023-02-11T21:29:23.509Z,102732.09
2023-02-11T21:31:51.730Z,102743.00
2023-02-11T21:34:20.800Z,102746.16
2023-02-11T21:36:51.156Z,102744.34
2023-02-11T21:39:20.318Z,102743.31
2023-02-11T21:41:48.308Z,102750.09
2023-02-11T21:44:16.474Z,102751.34
2023-02-11T21:46:44.517Z,102743.47
2023-02-11T21:49:12.540Z,102763.41
2023-02-11T21:51:40.806Z,102758.63
2023-02-11T21:54:12.578Z,102763.19
2023-02-11T21:56:40.619Z,102769.59
2023-02-11T21:59:08.547Z,102770.38
2023-02-11T22:01:36.918Z,102762.13
2023-02-11T22:04:05.258Z,102775.81
2023-02-11T22:06:35.905Z,102777.72
2023-02-11T22:09:07.144Z,102783.19
2023-02-11T22:11:37.000Z,102781.06
2023-02-11T22:14:05.811Z,102788.34
2023-02-11T22:16:34.105Z,102788.53
2023-02-11T22:19:03.339Z,102799.06
2023-02-11T22:21:31.639Z,102804.50
2023-02-11T22:23:59.655Z,102814.28
2023-02-11T22:26:29.588Z,102812.72
2023-02-11T22:28:59.205Z,102817.75
2023-02-11T22:31:31.538Z,102808.34
2023-02-11T22:34:00.026Z,102822.22
2023-02-11T22:36:31.359Z,102816.00
2023-02-11T22:39:02.820Z,102821.53
2023-02-11T22:41:31.302Z,102830.53
2023-02-11T22:44:00.944Z,102835.41
2023-02-11T22:46:28.770Z,102832.34
2023-02-11T22:48:57.217Z,102841.75
2023-02-11T22:51:29.766Z,102853.69
2023-02-11T22:54:00.421Z,102849.19
2023-02-11T22:56:31.078Z,102848.66
2023-02-11T22:59:03.067Z,102849.53
2023-02-11T23:01:46.451Z,102841.41
2023-02-11T23:04:16.946Z,102857.47
2023-02-11T23:06:47.528Z,102858.53
2023-02-11T23:09:15.815Z,102868.03
2023-02-11T23:11:44.152Z,102873.75
2023-02-11T23:14:22.984Z,102874.72
2023-02-11T23:16:57.147Z,102878.31
2023-02-11T23:19:25.176Z,102878.22
2023-02-11T23:21:54.738Z,102873.41
2023-02-11T23:24:22.724Z,102879.69
2023-02-11T23:26:50.752Z,102874.28
2023-02-11T23:29:20.139Z,102883.06
2023-02-11T23:31:48.227Z,102883.44
2023-02-11T23:34:20.274Z,102883.59
2023-02-11T23:36:48.437Z,102883.44
2023-02-11T23:39:17.843Z,102886.91
2023-02-11T23:41:48.151Z,102887.50
2023-02-11T23:44:16.121Z,102885.94
2023-02-11T23:46:45.694Z,102885.94
2023-02-11T23:49:15.443Z,102892.78
2023-02-11T23:51:43.465Z,102887.84
2023-02-11T23:54:13.748Z,102893.97
2023-02-11T23:56:42.514Z,102892.59
2023-02-11T23:59:11.523Z,102884.66
